CheckWX is a tool to help pilots better visualize weather data.  It is not intended as a substitute for an official pre-flight weather briefing.

11:57:28 UTC

GVSV TAF
São Pedro Airport
São Pedro, Cape Verde
TAF GVSV 121100Z 1212/1318 06022KT 7000 FEW022 PROB40 TEMPO 1212/1218 06022G32KT 4800 HZ TEMPO 1222/1306 06012KT

Dec-12@
12:00 UTC

Dec-12 @ 12:00 UTC

Dec-13@
18:00 UTC

Dec-13 @ 18:00 UTC

TAF GVSV 121100Z 1212/1318 06022KT 7000 FEW022
Wind
  • 060° at 22 KTS
Cloud Levels
  • Few at 2,200' AGL

Dec-12@
12:00 UTC

Dec-12 @ 12:00 UTC

Dec-12@
18:00 UTC

Dec-12 @ 18:00 UTC

PROB40 TEMPO 1212/1218 06022G32KT 4800 HZ

Temporary - 40% Likelihood

Temporary - 40% Likelihood during this time.

Wind
  • 060° at 22 KTS
  • {Gusting to 32 KTS
Conditions
Haze

Dec-12@
22:00 UTC

Dec-12 @ 22:00 UTC

Dec-13@
06:00 UTC

Dec-13 @ 06:00 UTC

TEMPO 1222/1306 06012KT

Temporary

Temporary Changes expected for less than half the time period

Wind
  • 060° at 12 KTS